sensor_id;sensor_type;location;lat;lon;timestamp;P1;durP1;ratioP1;P2;durP2;ratioP2
54261;SDS011;40174;52.364;6.452;2024-02-14T00:00:02;5.72;;;2.38;;
54261;SDS011;40174;52.364;6.452;2024-02-14T00:02:29;6.47;;;2.60;;
54261;SDS011;40174;52.364;6.452;2024-02-14T00:04:57;4.70;;;2.42;;
54261;SDS011;40174;52.364;6.452;2024-02-14T00:07:24;5.25;;;2.25;;
54261;SDS011;40174;52.364;6.452;2024-02-14T00:09:52;7.22;;;2.08;;
54261;SDS011;40174;52.364;6.452;2024-02-14T00:12:18;4.35;;;2.03;;
54261;SDS011;40174;52.364;6.452;2024-02-14T00:14:45;3.60;;;1.85;;
54261;SDS011;40174;52.364;6.452;2024-02-14T00:17:11;5.05;;;2.17;;
54261;SDS011;40174;52.364;6.452;2024-02-14T00:19:38;4.65;;;2.08;;
54261;SDS011;40174;52.364;6.452;2024-02-14T00:22:07;4.20;;;1.80;;
54261;SDS011;40174;52.364;6.452;2024-02-14T00:24:33;3.90;;;1.88;;
54261;SDS011;40174;52.364;6.452;2024-02-14T00:27:01;2.72;;;1.50;;
54261;SDS011;40174;52.364;6.452;2024-02-14T00:29:28;5.32;;;1.73;;
54261;SDS011;40174;52.364;6.452;2024-02-14T00:31:55;3.78;;;1.80;;
54261;SDS011;40174;52.364;6.452;2024-02-14T00:34:21;4.72;;;1.92;;
54261;SDS011;40174;52.364;6.452;2024-02-14T00:36:49;5.00;;;2.10;;
54261;SDS011;40174;52.364;6.452;2024-02-14T00:39:16;5.43;;;1.83;;
54261;SDS011;40174;52.364;6.452;2024-02-14T00:41:45;6.63;;;2.30;;
54261;SDS011;40174;52.364;6.452;2024-02-14T00:44:12;5.45;;;2.13;;
54261;SDS011;40174;52.364;6.452;2024-02-14T00:46:42;4.28;;;2.13;;
54261;SDS011;40174;52.364;6.452;2024-02-14T00:49:08;3.88;;;2.03;;
54261;SDS011;40174;52.364;6.452;2024-02-14T01:21:55;2.97;;;1.52;;
54261;SDS011;40174;52.364;6.452;2024-02-14T01:24:22;3.78;;;1.63;;
54261;SDS011;40174;52.364;6.452;2024-02-14T01:26:52;3.35;;;1.60;;
54261;SDS011;40174;52.364;6.452;2024-02-14T01:29:19;3.30;;;1.40;;
54261;SDS011;40174;52.364;6.452;2024-02-14T01:31:46;3.70;;;2.13;;
54261;SDS011;40174;52.364;6.452;2024-02-14T01:34:12;2.40;;;1.60;;
54261;SDS011;40174;52.364;6.452;2024-02-14T01:36:40;3.03;;;1.42;;
54261;SDS011;40174;52.364;6.452;2024-02-14T01:39:08;1.95;;;1.05;;
54261;SDS011;40174;52.364;6.452;2024-02-14T01:41:36;4.15;;;1.75;;
54261;SDS011;40174;52.364;6.452;2024-02-14T01:44:03;3.00;;;1.67;;
54261;SDS011;40174;52.364;6.452;2024-02-14T01:46:30;3.25;;;1.40;;
54261;SDS011;40174;52.364;6.452;2024-02-14T01:48:56;2.90;;;1.52;;
54261;SDS011;40174;52.364;6.452;2024-02-14T01:51:23;3.40;;;1.58;;
54261;SDS011;40174;52.364;6.452;2024-02-14T01:53:51;2.78;;;1.70;;
54261;SDS011;40174;52.364;6.452;2024-02-14T01:56:20;3.90;;;1.95;;
54261;SDS011;40174;52.364;6.452;2024-02-14T01:58:47;2.88;;;1.40;;
54261;SDS011;40174;52.364;6.452;2024-02-14T02:01:14;7.43;;;2.15;;
54261;SDS011;40174;52.364;6.452;2024-02-14T02:03:43;3.25;;;1.70;;
54261;SDS011;40174;52.364;6.452;2024-02-14T02:06:09;5.43;;;2.15;;
54261;SDS011;40174;52.364;6.452;2024-02-14T02:08:36;5.03;;;2.17;;
54261;SDS011;40174;52.364;6.452;2024-02-14T02:11:02;3.13;;;1.60;;
54261;SDS011;40174;52.364;6.452;2024-02-14T02:13:32;5.18;;;2.35;;
54261;SDS011;40174;52.364;6.452;2024-02-14T02:15:59;3.75;;;1.80;;
54261;SDS011;40174;52.364;6.452;2024-02-14T02:18:30;3.97;;;2.17;;
54261;SDS011;40174;52.364;6.452;2024-02-14T02:20:57;5.80;;;2.55;;
54261;SDS011;40174;52.364;6.452;2024-02-14T02:23:25;3.03;;;2.05;;
54261;SDS011;40174;52.364;6.452;2024-02-14T02:25:51;3.75;;;2.22;;
54261;SDS011;40174;52.364;6.452;2024-02-14T02:28:18;3.85;;;1.92;;
54261;SDS011;40174;52.364;6.452;2024-02-14T02:30:44;6.07;;;2.50;;
54261;SDS011;40174;52.364;6.452;2024-02-14T02:33:11;5.10;;;2.42;;
54261;SDS011;40174;52.364;6.452;2024-02-14T02:35:39;5.28;;;2.10;;
54261;SDS011;40174;52.364;6.452;2024-02-14T02:38:07;4.93;;;2.35;;
54261;SDS011;40174;52.364;6.452;2024-02-14T02:40:35;5.80;;;2.45;;
54261;SDS011;40174;52.364;6.452;2024-02-14T02:43:02;3.95;;;2.30;;
54261;SDS011;40174;52.364;6.452;2024-02-14T02:45:29;5.90;;;2.83;;
54261;SDS011;40174;52.364;6.452;2024-02-14T02:47:55;4.93;;;2.38;;
54261;SDS011;40174;52.364;6.452;2024-02-14T02:50:22;5.75;;;2.50;;
54261;SDS011;40174;52.364;6.452;2024-02-14T02:52:49;5.43;;;2.45;;
54261;SDS011;40174;52.364;6.452;2024-02-14T02:55:15;6.68;;;2.92;;
54261;SDS011;40174;52.364;6.452;2024-02-14T02:57:44;5.50;;;2.53;;
54261;SDS011;40174;52.364;6.452;2024-02-14T03:00:12;3.58;;;1.95;;
54261;SDS011;40174;52.364;6.452;2024-02-14T03:02:41;8.43;;;3.00;;
54261;SDS011;40174;52.364;6.452;2024-02-14T03:05:09;5.25;;;2.75;;
54261;SDS011;40174;52.364;6.452;2024-02-14T03:07:43;6.32;;;2.30;;
54261;SDS011;40174;52.364;6.452;2024-02-14T03:10:10;6.07;;;2.75;;
54261;SDS011;40174;52.364;6.452;2024-02-14T03:12:37;6.18;;;2.88;;
54261;SDS011;40174;52.364;6.452;2024-02-14T03:15:06;6.20;;;2.55;;
54261;SDS011;40174;52.364;6.452;2024-02-14T03:17:35;7.75;;;2.50;;
54261;SDS011;40174;52.364;6.452;2024-02-14T03:20:02;5.97;;;3.10;;
54261;SDS011;40174;52.364;6.452;2024-02-14T03:22:32;5.07;;;2.67;;
54261;SDS011;40174;52.364;6.452;2024-02-14T03:24:59;5.70;;;2.65;;
54261;SDS011;40174;52.364;6.452;2024-02-14T03:27:26;9.73;;;3.22;;
54261;SDS011;40174;52.364;6.452;2024-02-14T03:29:52;5.85;;;2.38;;
54261;SDS011;40174;52.364;6.452;2024-02-14T03:32:21;4.32;;;2.55;;
54261;SDS011;40174;52.364;6.452;2024-02-14T03:34:48;6.47;;;2.88;;
54261;SDS011;40174;52.364;6.452;2024-02-14T03:37:15;5.80;;;2.67;;
54261;SDS011;40174;52.364;6.452;2024-02-14T03:39:42;8.00;;;2.85;;
54261;SDS011;40174;52.364;6.452;2024-02-14T03:42:11;6.03;;;2.65;;
54261;SDS011;40174;52.364;6.452;2024-02-14T03:44:37;6.55;;;3.05;;
54261;SDS011;40174;52.364;6.452;2024-02-14T03:47:04;8.20;;;3.00;;
54261;SDS011;40174;52.364;6.452;2024-02-14T03:49:32;6.28;;;2.55;;
54261;SDS011;40174;52.364;6.452;2024-02-14T03:51:59;8.52;;;2.63;;
54261;SDS011;40174;52.364;6.452;2024-02-14T03:54:26;7.28;;;2.60;;
54261;SDS011;40174;52.364;6.452;2024-02-14T03:56:53;7.63;;;2.88;;
54261;SDS011;40174;52.364;6.452;2024-02-14T03:59:20;6.82;;;2.70;;
54261;SDS011;40174;52.364;6.452;2024-02-14T04:01:49;6.25;;;2.22;;
54261;SDS011;40174;52.364;6.452;2024-02-14T04:04:18;4.07;;;2.10;;
54261;SDS011;40174;52.364;6.452;2024-02-14T04:06:46;5.63;;;2.22;;
54261;SDS011;40174;52.364;6.452;2024-02-14T04:09:13;8.00;;;2.70;;
54261;SDS011;40174;52.364;6.452;2024-02-14T04:11:39;4.40;;;2.20;;
54261;SDS011;40174;52.364;6.452;2024-02-14T04:14:06;4.00;;;1.58;;
54261;SDS011;40174;52.364;6.452;2024-02-14T04:16:33;5.35;;;2.03;;
54261;SDS011;40174;52.364;6.452;2024-02-14T04:19:01;4.88;;;1.98;;
54261;SDS011;40174;52.364;6.452;2024-02-14T04:21:28;5.82;;;2.22;;
54261;SDS011;40174;52.364;6.452;2024-02-14T04:23:57;5.95;;;2.30;;
54261;SDS011;40174;52.364;6.452;2024-02-14T04:26:23;5.00;;;2.22;;
54261;SDS011;40174;52.364;6.452;2024-02-14T04:28:51;6.63;;;2.35;;
54261;SDS011;40174;52.364;6.452;2024-02-14T04:31:18;5.53;;;2.28;;
54261;SDS011;40174;52.364;6.452;2024-02-14T04:33:45;4.53;;;2.35;;
54261;SDS011;40174;52.364;6.452;2024-02-14T04:36:17;8.60;;;2.55;;
54261;SDS011;40174;52.364;6.452;2024-02-14T04:38:43;6.30;;;2.50;;
54261;SDS011;40174;52.364;6.452;2024-02-14T04:41:11;6.28;;;2.85;;
54261;SDS011;40174;52.364;6.452;2024-02-14T04:43:39;5.45;;;2.63;;
54261;SDS011;40174;52.364;6.452;2024-02-14T04:46:06;4.13;;;2.00;;
54261;SDS011;40174;52.364;6.452;2024-02-14T04:48:33;5.30;;;2.78;;
54261;SDS011;40174;52.364;6.452;2024-02-14T04:51:00;8.68;;;2.78;;
54261;SDS011;40174;52.364;6.452;2024-02-14T04:53:26;4.75;;;2.47;;
54261;SDS011;40174;52.364;6.452;2024-02-14T04:55:53;9.40;;;3.28;;
54261;SDS011;40174;52.364;6.452;2024-02-14T04:58:21;5.20;;;2.40;;
54261;SDS011;40174;52.364;6.452;2024-02-14T05:00:48;7.10;;;2.70;;
54261;SDS011;40174;52.364;6.452;2024-02-14T05:03:15;6.85;;;2.75;;
54261;SDS011;40174;52.364;6.452;2024-02-14T05:05:42;9.57;;;3.05;;
54261;SDS011;40174;52.364;6.452;2024-02-14T05:08:09;8.27;;;3.60;;
54261;SDS011;40174;52.364;6.452;2024-02-14T05:10:35;7.70;;;3.20;;
54261;SDS011;40174;52.364;6.452;2024-02-14T05:13:02;8.18;;;3.50;;
54261;SDS011;40174;52.364;6.452;2024-02-14T05:15:31;8.85;;;3.88;;
54261;SDS011;40174;52.364;6.452;2024-02-14T05:18:00;9.23;;;3.53;;
54261;SDS011;40174;52.364;6.452;2024-02-14T05:20:27;8.10;;;3.80;;
54261;SDS011;40174;52.364;6.452;2024-02-14T05:22:54;7.45;;;3.45;;
54261;SDS011;40174;52.364;6.452;2024-02-14T05:25:20;11.63;;;4.70;;
54261;SDS011;40174;52.364;6.452;2024-02-14T05:27:47;9.77;;;4.32;;
54261;SDS011;40174;52.364;6.452;2024-02-14T05:30:14;10.23;;;4.25;;
54261;SDS011;40174;52.364;6.452;2024-02-14T05:32:42;12.98;;;4.93;;
54261;SDS011;40174;52.364;6.452;2024-02-14T05:35:09;9.60;;;4.15;;
54261;SDS011;40174;52.364;6.452;2024-02-14T05:37:35;9.82;;;4.43;;
54261;SDS011;40174;52.364;6.452;2024-02-14T05:40:03;15.32;;;5.05;;
54261;SDS011;40174;52.364;6.452;2024-02-14T05:42:31;10.20;;;4.07;;
54261;SDS011;40174;52.364;6.452;2024-02-14T05:44:59;11.80;;;5.15;;
54261;SDS011;40174;52.364;6.452;2024-02-14T05:47:28;10.23;;;4.70;;
54261;SDS011;40174;52.364;6.452;2024-02-14T05:49:58;10.88;;;4.88;;
54261;SDS011;40174;52.364;6.452;2024-02-14T05:52:25;15.10;;;4.97;;
54261;SDS011;40174;52.364;6.452;2024-02-14T05:54:51;15.88;;;5.05;;
54261;SDS011;40174;52.364;6.452;2024-02-14T05:57:19;13.55;;;5.63;;
54261;SDS011;40174;52.364;6.452;2024-02-14T05:59:46;10.75;;;4.72;;
54261;SDS011;40174;52.364;6.452;2024-02-14T06:02:12;12.32;;;5.20;;
54261;SDS011;40174;52.364;6.452;2024-02-14T06:04:39;14.00;;;5.65;;
54261;SDS011;40174;52.364;6.452;2024-02-14T06:07:09;13.60;;;5.70;;
54261;SDS011;40174;52.364;6.452;2024-02-14T06:09:37;16.60;;;5.47;;
54261;SDS011;40174;52.364;6.452;2024-02-14T06:12:03;14.95;;;5.80;;
54261;SDS011;40174;52.364;6.452;2024-02-14T06:14:30;12.77;;;5.55;;
54261;SDS011;40174;52.364;6.452;2024-02-14T06:16:59;15.65;;;6.70;;
54261;SDS011;40174;52.364;6.452;2024-02-14T06:19:26;14.35;;;6.13;;
54261;SDS011;40174;52.364;6.452;2024-02-14T06:21:52;17.42;;;6.30;;
54261;SDS011;40174;52.364;6.452;2024-02-14T06:24:20;18.08;;;7.03;;
54261;SDS011;40174;52.364;6.452;2024-02-14T06:26:47;19.08;;;6.13;;
54261;SDS011;40174;52.364;6.452;2024-02-14T06:29:13;18.20;;;7.18;;
54261;SDS011;40174;52.364;6.452;2024-02-14T06:31:40;17.85;;;6.30;;
54261;SDS011;40174;52.364;6.452;2024-02-14T06:34:07;18.77;;;7.60;;
54261;SDS011;40174;52.364;6.452;2024-02-14T06:36:34;22.20;;;6.97;;
54261;SDS011;40174;52.364;6.452;2024-02-14T06:39:00;17.58;;;7.13;;
54261;SDS011;40174;52.364;6.452;2024-02-14T06:41:28;16.52;;;6.63;;
54261;SDS011;40174;52.364;6.452;2024-02-14T06:43:56;18.27;;;6.15;;
54261;SDS011;40174;52.364;6.452;2024-02-14T06:46:23;19.13;;;7.55;;
54261;SDS011;40174;52.364;6.452;2024-02-14T06:48:49;15.88;;;7.03;;
54261;SDS011;40174;52.364;6.452;2024-02-14T06:51:16;16.00;;;6.88;;
54261;SDS011;40174;52.364;6.452;2024-02-14T06:53:43;20.58;;;7.28;;
54261;SDS011;40174;52.364;6.452;2024-02-14T06:56:09;19.75;;;7.47;;
54261;SDS011;40174;52.364;6.452;2024-02-14T06:58:37;14.95;;;6.75;;
54261;SDS011;40174;52.364;6.452;2024-02-14T07:01:04;12.77;;;5.88;;
54261;SDS011;40174;52.364;6.452;2024-02-14T07:03:31;20.08;;;5.82;;
54261;SDS011;40174;52.364;6.452;2024-02-14T07:05:57;19.52;;;7.10;;
54261;SDS011;40174;52.364;6.452;2024-02-14T07:08:24;16.10;;;6.20;;
54261;SDS011;40174;52.364;6.452;2024-02-14T07:10:54;18.65;;;7.38;;
54261;SDS011;40174;52.364;6.452;2024-02-14T07:13:20;16.40;;;6.25;;
54261;SDS011;40174;52.364;6.452;2024-02-14T07:15:49;15.95;;;5.80;;
54261;SDS011;40174;52.364;6.452;2024-02-14T07:18:16;20.23;;;7.45;;
54261;SDS011;40174;52.364;6.452;2024-02-14T07:20:42;16.85;;;5.88;;
54261;SDS011;40174;52.364;6.452;2024-02-14T07:23:09;16.40;;;6.45;;
54261;SDS011;40174;52.364;6.452;2024-02-14T07:25:35;16.23;;;5.72;;
54261;SDS011;40174;52.364;6.452;2024-02-14T07:28:02;15.73;;;6.45;;
54261;SDS011;40174;52.364;6.452;2024-02-14T07:30:29;18.65;;;6.60;;
54261;SDS011;40174;52.364;6.452;2024-02-14T07:32:57;13.68;;;5.43;;
54261;SDS011;40174;52.364;6.452;2024-02-14T07:35:24;12.38;;;4.80;;
54261;SDS011;40174;52.364;6.452;2024-02-14T07:37:50;15.27;;;4.57;;
54261;SDS011;40174;52.364;6.452;2024-02-14T07:40:18;11.02;;;4.75;;
54261;SDS011;40174;52.364;6.452;2024-02-14T07:42:45;12.25;;;5.45;;
54261;SDS011;40174;52.364;6.452;2024-02-14T07:45:15;11.90;;;4.70;;
54261;SDS011;40174;52.364;6.452;2024-02-14T07:47:42;10.48;;;4.88;;
54261;SDS011;40174;52.364;6.452;2024-02-14T07:50:10;10.75;;;4.25;;
54261;SDS011;40174;52.364;6.452;2024-02-14T07:52:40;12.10;;;4.57;;
54261;SDS011;40174;52.364;6.452;2024-02-14T07:55:08;13.63;;;4.55;;
54261;SDS011;40174;52.364;6.452;2024-02-14T07:57:35;9.07;;;3.65;;
54261;SDS011;40174;52.364;6.452;2024-02-14T08:00:02;8.23;;;3.47;;
54261;SDS011;40174;52.364;6.452;2024-02-14T08:02:30;11.35;;;4.15;;
54261;SDS011;40174;52.364;6.452;2024-02-14T08:04:56;10.70;;;4.05;;
54261;SDS011;40174;52.364;6.452;2024-02-14T08:07:24;10.65;;;3.85;;
54261;SDS011;40174;52.364;6.452;2024-02-14T08:09:51;9.27;;;3.50;;
54261;SDS011;40174;52.364;6.452;2024-02-14T08:12:17;13.05;;;3.90;;
54261;SDS011;40174;52.364;6.452;2024-02-14T08:14:44;8.43;;;3.63;;
54261;SDS011;40174;52.364;6.452;2024-02-14T08:17:12;10.75;;;3.53;;
54261;SDS011;40174;52.364;6.452;2024-02-14T08:19:39;9.55;;;3.63;;
54261;SDS011;40174;52.364;6.452;2024-02-14T08:22:05;7.45;;;3.47;;
54261;SDS011;40174;52.364;6.452;2024-02-14T08:24:34;6.50;;;3.20;;
54261;SDS011;40174;52.364;6.452;2024-02-14T08:27:01;9.10;;;3.50;;
54261;SDS011;40174;52.364;6.452;2024-02-14T08:29:27;10.05;;;3.90;;
54261;SDS011;40174;52.364;6.452;2024-02-14T08:31:54;11.82;;;4.00;;
54261;SDS011;40174;52.364;6.452;2024-02-14T08:34:21;9.20;;;3.22;;
54261;SDS011;40174;52.364;6.452;2024-02-14T08:36:47;8.75;;;3.53;;
54261;SDS011;40174;52.364;6.452;2024-02-14T08:39:14;8.52;;;3.05;;
54261;SDS011;40174;52.364;6.452;2024-02-14T08:41:43;9.45;;;3.70;;
54261;SDS011;40174;52.364;6.452;2024-02-14T08:44:12;10.38;;;3.70;;
54261;SDS011;40174;52.364;6.452;2024-02-14T08:46:38;9.05;;;3.60;;
54261;SDS011;40174;52.364;6.452;2024-02-14T08:49:07;10.93;;;3.85;;
54261;SDS011;40174;52.364;6.452;2024-02-14T08:51:34;7.10;;;3.20;;
54261;SDS011;40174;52.364;6.452;2024-02-14T08:54:01;9.73;;;3.65;;
54261;SDS011;40174;52.364;6.452;2024-02-14T08:56:30;9.98;;;4.13;;
54261;SDS011;40174;52.364;6.452;2024-02-14T08:59:00;11.63;;;4.28;;
54261;SDS011;40174;52.364;6.452;2024-02-14T09:01:27;8.52;;;3.70;;
54261;SDS011;40174;52.364;6.452;2024-02-14T09:03:54;10.48;;;4.57;;
54261;SDS011;40174;52.364;6.452;2024-02-14T09:06:20;11.35;;;4.25;;
54261;SDS011;40174;52.364;6.452;2024-02-14T09:08:47;11.65;;;4.97;;
54261;SDS011;40174;52.364;6.452;2024-02-14T09:11:15;11.88;;;4.75;;
54261;SDS011;40174;52.364;6.452;2024-02-14T09:13:43;10.13;;;4.30;;
54261;SDS011;40174;52.364;6.452;2024-02-14T09:16:14;12.52;;;4.50;;
54261;SDS011;40174;52.364;6.452;2024-02-14T09:18:41;11.55;;;5.68;;
54261;SDS011;40174;52.364;6.452;2024-02-14T09:21:08;12.02;;;4.88;;
54261;SDS011;40174;52.364;6.452;2024-02-14T09:23:35;9.90;;;4.43;;
54261;SDS011;40174;52.364;6.452;2024-02-14T09:26:04;11.55;;;4.85;;
54261;SDS011;40174;52.364;6.452;2024-02-14T09:28:31;14.20;;;5.97;;
54261;SDS011;40174;52.364;6.452;2024-02-14T09:30:58;11.45;;;4.85;;
54261;SDS011;40174;52.364;6.452;2024-02-14T09:33:26;14.00;;;5.70;;
54261;SDS011;40174;52.364;6.452;2024-02-14T09:35:53;14.05;;;5.72;;
54261;SDS011;40174;52.364;6.452;2024-02-14T09:38:19;11.43;;;5.05;;
54261;SDS011;40174;52.364;6.452;2024-02-14T09:40:46;11.65;;;4.80;;
54261;SDS011;40174;52.364;6.452;2024-02-14T09:43:16;15.07;;;5.95;;
54261;SDS011;40174;52.364;6.452;2024-02-14T09:45:51;11.05;;;4.60;;
54261;SDS011;40174;52.364;6.452;2024-02-14T09:48:17;10.57;;;4.50;;
54261;SDS011;40174;52.364;6.452;2024-02-14T09:50:47;16.98;;;4.88;;
54261;SDS011;40174;52.364;6.452;2024-02-14T09:53:15;14.45;;;5.40;;
54261;SDS011;40174;52.364;6.452;2024-02-14T09:55:43;12.85;;;5.28;;
54261;SDS011;40174;52.364;6.452;2024-02-14T09:58:12;11.52;;;4.65;;
54261;SDS011;40174;52.364;6.452;2024-02-14T10:00:39;11.43;;;4.45;;
54261;SDS011;40174;52.364;6.452;2024-02-14T10:03:06;11.48;;;4.35;;
54261;SDS011;40174;52.364;6.452;2024-02-14T10:05:33;12.60;;;4.35;;
54261;SDS011;40174;52.364;6.452;2024-02-14T10:08:01;10.23;;;4.53;;
54261;SDS011;40174;52.364;6.452;2024-02-14T10:10:28;10.45;;;3.60;;
54261;SDS011;40174;52.364;6.452;2024-02-14T10:12:55;10.07;;;4.43;;
54261;SDS011;40174;52.364;6.452;2024-02-14T10:15:22;10.90;;;4.65;;
54261;SDS011;40174;52.364;6.452;2024-02-14T10:17:48;9.05;;;4.15;;
54261;SDS011;40174;52.364;6.452;2024-02-14T10:20:16;9.05;;;4.10;;
54261;SDS011;40174;52.364;6.452;2024-02-14T10:22:43;9.93;;;4.50;;
54261;SDS011;40174;52.364;6.452;2024-02-14T10:25:13;9.57;;;4.03;;
54261;SDS011;40174;52.364;6.452;2024-02-14T10:27:40;11.52;;;5.05;;
54261;SDS011;40174;52.364;6.452;2024-02-14T10:30:07;8.68;;;3.85;;
54261;SDS011;40174;52.364;6.452;2024-02-14T10:32:36;11.77;;;4.60;;
54261;SDS011;40174;52.364;6.452;2024-02-14T10:35:04;7.97;;;4.07;;
54261;SDS011;40174;52.364;6.452;2024-02-14T10:37:34;7.80;;;2.58;;
54261;SDS011;40174;52.364;6.452;2024-02-14T10:40:01;9.60;;;3.83;;
54261;SDS011;40174;52.364;6.452;2024-02-14T10:42:30;8.23;;;3.17;;
54261;SDS011;40174;52.364;6.452;2024-02-14T10:44:57;9.25;;;2.47;;
54261;SDS011;40174;52.364;6.452;2024-02-14T10:47:25;6.75;;;3.05;;
54261;SDS011;40174;52.364;6.452;2024-02-14T10:49:57;6.88;;;3.13;;
54261;SDS011;40174;52.364;6.452;2024-02-14T10:52:27;7.50;;;3.30;;
54261;SDS011;40174;52.364;6.452;2024-02-14T10:54:58;7.00;;;2.70;;
54261;SDS011;40174;52.364;6.452;2024-02-14T10:57:27;6.78;;;2.95;;
54261;SDS011;40174;52.364;6.452;2024-02-14T10:59:58;8.20;;;3.33;;
54261;SDS011;40174;52.364;6.452;2024-02-14T11:02:27;10.73;;;3.85;;
54261;SDS011;40174;52.364;6.452;2024-02-14T11:04:55;9.43;;;3.60;;
54261;SDS011;40174;52.364;6.452;2024-02-14T11:07:22;7.30;;;2.97;;
54261;SDS011;40174;52.364;6.452;2024-02-14T11:09:59;8.10;;;3.58;;
54261;SDS011;40174;52.364;6.452;2024-02-14T11:12:27;7.95;;;3.15;;
54261;SDS011;40174;52.364;6.452;2024-02-14T11:15:00;8.35;;;3.25;;
54261;SDS011;40174;52.364;6.452;2024-02-14T11:17:28;7.30;;;3.72;;
54261;SDS011;40174;52.364;6.452;2024-02-14T11:19:55;8.98;;;3.45;;
54261;SDS011;40174;52.364;6.452;2024-02-14T11:22:22;8.70;;;3.17;;
54261;SDS011;40174;52.364;6.452;2024-02-14T11:24:48;9.52;;;3.60;;
54261;SDS011;40174;52.364;6.452;2024-02-14T11:27:17;9.02;;;3.55;;
54261;SDS011;40174;52.364;6.452;2024-02-14T11:29:50;6.80;;;3.55;;
54261;SDS011;40174;52.364;6.452;2024-02-14T11:32:19;7.55;;;3.38;;
54261;SDS011;40174;52.364;6.452;2024-02-14T11:34:52;9.60;;;4.22;;
54261;SDS011;40174;52.364;6.452;2024-02-14T11:37:20;8.85;;;4.00;;
54261;SDS011;40174;52.364;6.452;2024-02-14T11:39:48;10.00;;;4.35;;
54261;SDS011;40174;52.364;6.452;2024-02-14T11:42:15;10.45;;;4.25;;
54261;SDS011;40174;52.364;6.452;2024-02-14T11:44:41;9.02;;;4.07;;
54261;SDS011;40174;52.364;6.452;2024-02-14T11:47:08;8.20;;;3.80;;
54261;SDS011;40174;52.364;6.452;2024-02-14T11:49:37;8.18;;;3.42;;
54261;SDS011;40174;52.364;6.452;2024-02-14T11:52:09;9.25;;;4.10;;
54261;SDS011;40174;52.364;6.452;2024-02-14T11:54:35;10.82;;;4.07;;
54261;SDS011;40174;52.364;6.452;2024-02-14T11:57:03;8.55;;;3.13;;
54261;SDS011;40174;52.364;6.452;2024-02-14T11:59:29;15.68;;;4.53;;
54261;SDS011;40174;52.364;6.452;2024-02-14T12:01:56;11.30;;;4.63;;
54261;SDS011;40174;52.364;6.452;2024-02-14T12:04:23;14.32;;;5.65;;
54261;SDS011;40174;52.364;6.452;2024-02-14T12:06:52;8.32;;;3.65;;
54261;SDS011;40174;52.364;6.452;2024-02-14T12:09:20;12.80;;;4.53;;
54261;SDS011;40174;52.364;6.452;2024-02-14T12:11:46;10.38;;;3.60;;
54261;SDS011;40174;52.364;6.452;2024-02-14T12:14:13;8.43;;;3.97;;
54261;SDS011;40174;52.364;6.452;2024-02-14T12:16:43;8.98;;;4.10;;
54261;SDS011;40174;52.364;6.452;2024-02-14T12:19:13;9.88;;;3.92;;
54261;SDS011;40174;52.364;6.452;2024-02-14T12:21:41;9.93;;;4.43;;
54261;SDS011;40174;52.364;6.452;2024-02-14T12:24:11;14.50;;;4.25;;
54261;SDS011;40174;52.364;6.452;2024-02-14T12:26:39;6.47;;;3.28;;
54261;SDS011;40174;52.364;6.452;2024-02-14T12:29:07;10.65;;;3.92;;
54261;SDS011;40174;52.364;6.452;2024-02-14T12:31:40;8.20;;;3.67;;
54261;SDS011;40174;52.364;6.452;2024-02-14T12:34:10;7.95;;;3.35;;
54261;SDS011;40174;52.364;6.452;2024-02-14T12:36:37;7.57;;;3.15;;
54261;SDS011;40174;52.364;6.452;2024-02-14T12:39:04;7.60;;;3.00;;
54261;SDS011;40174;52.364;6.452;2024-02-14T12:41:32;8.00;;;3.30;;
54261;SDS011;40174;52.364;6.452;2024-02-14T12:44:02;9.88;;;3.45;;
54261;SDS011;40174;52.364;6.452;2024-02-14T12:46:29;10.27;;;3.45;;
54261;SDS011;40174;52.364;6.452;2024-02-14T12:48:56;9.15;;;3.13;;
54261;SDS011;40174;52.364;6.452;2024-02-14T12:51:23;7.07;;;3.45;;
54261;SDS011;40174;52.364;6.452;2024-02-14T12:53:53;8.10;;;3.53;;
54261;SDS011;40174;52.364;6.452;2024-02-14T12:56:20;8.13;;;3.40;;
54261;SDS011;40174;52.364;6.452;2024-02-14T12:58:48;9.50;;;3.15;;
54261;SDS011;40174;52.364;6.452;2024-02-14T13:01:15;10.98;;;3.85;;
54261;SDS011;40174;52.364;6.452;2024-02-14T13:03:43;11.07;;;3.70;;
54261;SDS011;40174;52.364;6.452;2024-02-14T13:06:10;7.88;;;3.53;;
54261;SDS011;40174;52.364;6.452;2024-02-14T13:08:37;7.32;;;2.92;;
54261;SDS011;40174;52.364;6.452;2024-02-14T13:11:05;7.72;;;3.17;;
54261;SDS011;40174;52.364;6.452;2024-02-14T13:13:33;8.55;;;3.10;;
54261;SDS011;40174;52.364;6.452;2024-02-14T13:16:02;7.38;;;2.63;;
54261;SDS011;40174;52.364;6.452;2024-02-14T13:18:31;8.52;;;2.92;;
54261;SDS011;40174;52.364;6.452;2024-02-14T13:20:58;11.85;;;4.45;;
54261;SDS011;40174;52.364;6.452;2024-02-14T13:23:25;8.88;;;2.88;;
54261;SDS011;40174;52.364;6.452;2024-02-14T13:25:51;6.38;;;2.88;;
54261;SDS011;40174;52.364;6.452;2024-02-14T13:28:18;9.27;;;3.33;;
54261;SDS011;40174;52.364;6.452;2024-02-14T13:30:45;7.47;;;3.00;;
54261;SDS011;40174;52.364;6.452;2024-02-14T13:33:14;6.55;;;3.05;;
54261;SDS011;40174;52.364;6.452;2024-02-14T13:35:41;8.48;;;3.20;;
54261;SDS011;40174;52.364;6.452;2024-02-14T13:38:07;10.43;;;3.97;;
54261;SDS011;40174;52.364;6.452;2024-02-14T13:40:37;13.00;;;3.33;;
54261;SDS011;40174;52.364;6.452;2024-02-14T13:43:04;8.18;;;3.60;;
54261;SDS011;40174;52.364;6.452;2024-02-14T13:45:39;6.10;;;2.75;;
54261;SDS011;40174;52.364;6.452;2024-02-14T13:48:08;7.65;;;3.28;;
54261;SDS011;40174;52.364;6.452;2024-02-14T13:50:37;6.32;;;2.95;;
54261;SDS011;40174;52.364;6.452;2024-02-14T13:53:04;5.43;;;2.40;;
54261;SDS011;40174;52.364;6.452;2024-02-14T13:55:33;6.38;;;2.70;;
54261;SDS011;40174;52.364;6.452;2024-02-14T13:58:00;5.88;;;2.38;;
54261;SDS011;40174;52.364;6.452;2024-02-14T14:00:27;6.20;;;2.80;;
54261;SDS011;40174;52.364;6.452;2024-02-14T14:02:54;5.40;;;2.33;;
54261;SDS011;40174;52.364;6.452;2024-02-14T14:05:22;5.15;;;2.13;;
54261;SDS011;40174;52.364;6.452;2024-02-14T14:07:50;5.45;;;2.08;;
54261;SDS011;40174;52.364;6.452;2024-02-14T14:10:17;7.30;;;2.72;;
54261;SDS011;40174;52.364;6.452;2024-02-14T14:12:44;5.60;;;2.58;;
54261;SDS011;40174;52.364;6.452;2024-02-14T14:15:11;6.22;;;2.33;;
54261;SDS011;40174;52.364;6.452;2024-02-14T14:17:38;5.93;;;2.03;;
54261;SDS011;40174;52.364;6.452;2024-02-14T14:20:04;4.97;;;2.30;;
54261;SDS011;40174;52.364;6.452;2024-02-14T14:22:33;5.85;;;2.17;;
54261;SDS011;40174;52.364;6.452;2024-02-14T14:25:01;5.90;;;2.17;;
54261;SDS011;40174;52.364;6.452;2024-02-14T14:27:30;8.30;;;1.85;;
54261;SDS011;40174;52.364;6.452;2024-02-14T14:29:56;3.85;;;1.83;;
54261;SDS011;40174;52.364;6.452;2024-02-14T14:32:23;4.60;;;1.98;;
54261;SDS011;40174;52.364;6.452;2024-02-14T14:34:50;3.50;;;1.63;;
54261;SDS011;40174;52.364;6.452;2024-02-14T14:37:17;3.67;;;1.75;;
54261;SDS011;40174;52.364;6.452;2024-02-14T14:39:44;3.45;;;1.35;;
54261;SDS011;40174;52.364;6.452;2024-02-14T14:42:12;2.85;;;1.70;;
54261;SDS011;40174;52.364;6.452;2024-02-14T14:44:38;3.28;;;1.55;;
54261;SDS011;40174;52.364;6.452;2024-02-14T14:47:06;9.00;;;1.35;;
54261;SDS011;40174;52.364;6.452;2024-02-14T14:49:33;4.57;;;1.73;;
54261;SDS011;40174;52.364;6.452;2024-02-14T14:51:59;4.60;;;1.90;;
54261;SDS011;40174;52.364;6.452;2024-02-14T14:54:29;3.42;;;1.23;;
54261;SDS011;40174;52.364;6.452;2024-02-14T14:56:56;4.13;;;1.90;;
54261;SDS011;40174;52.364;6.452;2024-02-14T14:59:24;2.58;;;1.40;;
54261;SDS011;40174;52.364;6.452;2024-02-14T15:01:50;4.00;;;1.60;;
54261;SDS011;40174;52.364;6.452;2024-02-14T15:04:19;3.15;;;1.50;;
54261;SDS011;40174;52.364;6.452;2024-02-14T15:06:45;3.70;;;1.42;;
54261;SDS011;40174;52.364;6.452;2024-02-14T15:09:12;4.55;;;2.00;;
54261;SDS011;40174;52.364;6.452;2024-02-14T15:11:40;3.22;;;1.50;;
54261;SDS011;40174;52.364;6.452;2024-02-14T15:14:07;2.83;;;1.27;;